Time;durP1;ratioP1;P1;durP2;ratioP2;P2;SDS_P1;SDS_P2;PMS_P1;PMS_P2;Temp;Humidity;BMP_temperature;BMP_pressure;BME280_temperature;BME280_humidity;BME280_pressure;Samples;Min_cycle;Max_cycle;Signal;HPM_P1;HPM_P2
2022/06/20 00:00:33;;;;;;;3.42;0.90;;;19.70;56.20;;;;;;4912553;29;20076;-42
2022/06/20 00:03:00;;;;;;;1.30;1.08;;;19.70;56.10;;;;;;4909960;29;20056;-44
2022/06/20 00:05:32;;;;;;;3.10;0.77;;;19.80;56.40;;;;;;4911223;29;20048;-44
2022/06/20 00:08:09;;;;;;;2.08;0.98;;;19.80;56.20;;;;;;4913145;29;20178;-42
2022/06/20 00:10:36;;;;;;;1.23;0.70;;;19.80;56.60;;;;;;4912609;29;20051;-42
2022/06/20 00:13:04;;;;;;;1.92;0.95;;;19.80;56.20;;;;;;4910085;29;20595;-43
2022/06/20 00:15:35;;;;;;;1.77;0.88;;;19.80;56.10;;;;;;4909067;29;20059;-43
2022/06/20 00:18:07;;;;;;;4.40;1.10;;;19.70;56.20;;;;;;4913564;29;20070;-44
2022/06/20 00:20:38;;;;;;;4.05;1.40;;;19.80;56.30;;;;;;4912658;29;20056;-45
2022/06/20 00:23:05;;;;;;;1.50;0.95;;;19.80;56.20;;;;;;4908359;29;20048;-42
2022/06/20 00:25:34;;;;;;;2.15;0.82;;;19.80;56.40;;;;;;4911817;29;20048;-43
2022/06/20 00:28:01;;;;;;;2.80;0.93;;;19.80;56.40;;;;;;4913978;29;20052;-43
2022/06/20 00:30:28;;;;;;;2.63;1.30;;;19.80;56.60;;;;;;4912314;29;20044;-43
2022/06/20 00:32:55;;;;;;;3.40;1.10;;;19.80;56.50;;;;;;4906828;29;20504;-43
2022/06/20 00:35:24;;;;;;;2.10;0.93;;;19.80;56.40;;;;;;4913123;29;20040;-45
2022/06/20 00:37:55;;;;;;;2.17;1.00;;;19.80;56.70;;;;;;4913695;29;20051;-44
2022/06/20 00:40:39;;;;;;;1.77;1.05;;;19.80;56.90;;;;;;4911484;29;20033;-42
2022/06/20 00:43:13;;;;;;;1.95;1.02;;;19.80;57.10;;;;;;4912223;29;20047;-43
2022/06/20 00:45:46;;;;;;;2.13;0.88;;;19.80;56.70;;;;;;4908619;29;20064;-44
2022/06/20 00:48:22;;;;;;;3.05;1.08;;;19.80;56.50;;;;;;4913536;29;20044;-43
2022/06/20 00:50:55;;;;;;;4.00;1.13;;;19.80;56.30;;;;;;4913915;29;20049;-44
2022/06/20 00:53:39;;;;;;;1.38;0.77;;;19.80;56.80;;;;;;4915501;29;20456;-45
2022/06/20 00:56:33;;;;;;;2.60;1.00;;;19.80;57.30;;;;;;4916011;29;20103;-42
2022/06/20 00:59:09;;;;;;;2.38;1.10;;;19.70;57.00;;;;;;4914101;29;20535;-42
2022/06/20 01:01:42;;;;;;;3.38;1.05;;;19.70;56.90;;;;;;4904027;29;20044;-42
2022/06/20 01:04:34;;;;;;;3.55;1.40;;;19.60;56.70;;;;;;4915980;29;20048;-43
2022/06/20 01:07:05;;;;;;;2.45;1.20;;;19.60;58.00;;;;;;4915395;29;20040;-42
2022/06/20 01:09:36;;;;;;;3.25;0.85;;;19.50;57.80;;;;;;4908850;29;20109;-43
2022/06/20 01:12:11;;;;;;;3.13;1.73;;;19.50;58.00;;;;;;4913062;29;20124;-42
2022/06/20 01:14:41;;;;;;;1.48;1.02;;;19.40;58.20;;;;;;4906939;29;20095;-44
2022/06/20 01:17:17;;;;;;;2.00;1.00;;;19.40;58.80;;;;;;4916426;29;20044;-44
2022/06/20 01:20:30;;;;;;;1.60;1.00;;;19.40;60.00;;;;;;4910117;29;20058;-44
2022/06/20 01:22:59;;;;;;;3.45;1.02;;;19.40;59.40;;;;;;4819678;29;20468;-42
2022/06/20 01:26:02;;;;;;;4.43;1.48;;;19.30;58.80;;;;;;4819470;29;20074;-42
2022/06/20 01:28:37;;;;;;;4.10;1.38;;;19.30;60.90;;;;;;4888480;29;20119;-44
2022/06/20 01:31:09;;;;;;;4.72;1.58;;;19.30;60.60;;;;;;4911889;29;20048;-44
2022/06/20 01:33:38;;;;;;;3.60;1.35;;;19.30;60.40;;;;;;4914792;29;20052;-44
2022/06/20 01:38:55;;;;;;;3.78;1.65;;;19.30;60.40;;;;;;4911451;29;20044;-43
2022/06/20 01:44:13;;;;;;;1.85;1.17;;;19.30;60.90;;;;;;4915631;29;20036;-45
2022/06/20 01:46:44;;;;;;;;;;;19.30;61.40;;;;;;4907556;29;20036;-42
2022/06/20 01:49:22;;;;;;;2.53;1.23;;;19.30;60.80;;;;;;4912930;29;19958;-43
2022/06/20 01:52:04;;;;;;;3.42;1.58;;;19.30;61.40;;;;;;4914215;29;20079;-43
2022/06/20 01:54:40;;;;;;;3.35;1.40;;;19.30;61.60;;;;;;4912969;29;20040;-44
2022/06/20 01:57:09;;;;;;;2.75;1.52;;;19.30;61.10;;;;;;4913861;29;20104;-41
2022/06/20 01:59:57;;;;;;;2.67;1.58;;;19.20;60.90;;;;;;4913722;29;20052;-44
2022/06/20 02:02:25;;;;;;;2.33;2.08;;;19.30;60.90;;;;;;4914526;29;20076;-43
2022/06/20 02:04:52;;;;;;;4.72;1.52;;;19.20;61.40;;;;;;4910847;29;20073;-43
2022/06/20 02:07:19;;;;;;;2.67;1.23;;;19.20;60.90;;;;;;4907776;29;20052;-42
2022/06/20 02:09:52;;;;;;;3.22;1.90;;;19.20;60.80;;;;;;4906155;29;20048;-42
2022/06/20 02:12:21;;;;;;;1.73;1.38;;;19.20;61.10;;;;;;4910941;29;20048;-43
2022/06/20 02:14:52;;;;;;;3.92;1.60;;;19.10;60.70;;;;;;4905845;29;20036;-42
2022/06/20 02:17:25;;;;;;;2.67;1.60;;;19.10;61.10;;;;;;4912030;29;20064;-43
2022/06/20 02:19:57;;;;;;;5.43;1.92;;;19.10;61.00;;;;;;4911531;29;20103;-42
2022/06/20 02:22:26;;;;;;;2.67;1.65;;;19.10;60.80;;;;;;4911719;29;20111;-42
2022/06/20 02:24:59;;;;;;;5.28;2.10;;;19.00;60.50;;;;;;4905219;29;20043;-44
2022/06/20 02:27:34;;;;;;;2.83;1.77;;;19.00;60.60;;;;;;4910868;29;20047;-43
2022/06/20 02:30:03;;;;;;;2.53;1.30;;;18.90;60.40;;;;;;4910981;29;20044;-42
2022/06/20 02:32:35;;;;;;;5.35;1.90;;;18.90;60.20;;;;;;4914956;29;20463;-43
2022/06/20 02:35:08;;;;;;;4.13;1.38;;;18.90;60.60;;;;;;4910414;29;20055;-41
2022/06/20 02:37:37;;;;;;;4.28;1.45;;;18.80;60.10;;;;;;4910910;29;20048;-43
2022/06/20 02:40:19;;;;;;;7.35;2.22;;;18.80;60.30;;;;;;4910914;29;20040;-43
2022/06/20 02:43:09;;;;;;;4.60;1.98;;;18.70;60.30;;;;;;4907710;29;20119;-42
2022/06/20 02:45:43;;;;;;;4.88;1.58;;;18.70;60.20;;;;;;4906378;29;20055;-43
2022/06/20 02:48:13;;;;;;;3.45;1.40;;;18.60;60.00;;;;;;4910939;29;20058;-43
2022/06/20 02:50:51;;;;;;;4.03;1.55;;;18.50;60.20;;;;;;4910304;29;20123;-41
2022/06/20 02:53:49;;;;;;;2.88;1.63;;;18.50;61.00;;;;;;4906641;29;20048;-43
2022/06/20 02:56:21;;;;;;;6.38;2.00;;;18.40;61.30;;;;;;4911003;29;20108;-41
2022/06/20 02:58:52;;;;;;;5.57;1.95;;;18.30;61.20;;;;;;4911018;29;20119;-42
2022/06/20 03:01:42;;;;;;;3.70;1.90;;;18.30;61.40;;;;;;4932407;23;20124;-48
2022/06/20 03:04:10;;;;;;;4.57;1.65;;;18.30;62.30;;;;;;4908567;29;20048;-46
2022/06/20 03:06:42;;;;;;;4.70;1.77;;;18.20;61.60;;;;;;4911428;29;20040;-44
2022/06/20 03:09:15;;;;;;;4.22;2.03;;;18.20;62.10;;;;;;4910287;29;20111;-47
2022/06/20 03:11:44;;;;;;;2.42;1.90;;;18.10;62.00;;;;;;4908150;29;20040;-44
2022/06/20 03:14:16;;;;;;;3.15;1.50;;;18.10;61.80;;;;;;4911053;29;20099;-46
2022/06/20 03:16:47;;;;;;;2.58;2.20;;;18.00;62.20;;;;;;4911321;29;20048;-45
2022/06/20 03:19:22;;;;;;;5.65;2.50;;;18.00;62.80;;;;;;4909909;29;20045;-49
2022/06/20 03:21:51;;;;;;;3.47;2.00;;;18.00;62.50;;;;;;4902845;29;20052;-46
2022/06/20 03:24:24;;;;;;;5.00;2.05;;;17.90;62.40;;;;;;4911118;29;20052;-48
2022/06/20 03:26:54;;;;;;;4.68;2.08;;;17.90;62.70;;;;;;4911555;29;20111;-44
2022/06/20 03:29:23;;;;;;;5.90;2.47;;;17.90;62.50;;;;;;4910561;29;20455;-48
2022/06/20 03:31:53;;;;;;;4.43;2.10;;;17.80;62.70;;;;;;4909078;29;20615;-47
2022/06/20 03:34:21;;;;;;;6.38;2.00;;;17.80;62.70;;;;;;4910879;29;20059;-47
2022/06/20 03:36:51;;;;;;;4.60;2.17;;;17.80;62.80;;;;;;4909380;29;20044;-48
2022/06/20 03:39:19;;;;;;;2.88;1.88;;;17.80;62.70;;;;;;4906400;29;20044;-49
2022/06/20 03:41:49;;;;;;;3.95;2.35;;;17.70;62.60;;;;;;4911149;29;20040;-46
2022/06/20 03:44:22;;;;;;;4.47;2.47;;;17.80;62.60;;;;;;4910834;29;20040;-49
2022/06/20 03:46:55;;;;;;;6.35;2.10;;;17.70;62.70;;;;;;4908063;29;20068;-46
2022/06/20 03:49:28;;;;;;;4.68;2.65;;;17.70;62.70;;;;;;4908259;29;20036;-47
2022/06/20 03:52:07;;;;;;;2.95;1.70;;;17.70;62.90;;;;;;4908845;29;20116;-45
2022/06/20 03:54:49;;;;;;;4.82;2.03;;;17.70;63.20;;;;;;4910971;29;20052;-48
2022/06/20 03:57:27;;;;;;;3.30;1.70;;;17.70;62.80;;;;;;4908528;29;20774;-46
2022/06/20 04:00:19;;;;;;;3.97;1.83;;;17.70;62.70;;;;;;4907180;29;20088;-45
2022/06/20 04:02:54;;;;;;;3.80;1.63;;;17.70;62.80;;;;;;4910271;29;20568;-47
2022/06/20 04:05:45;;;;;;;2.72;1.60;;;17.80;62.50;;;;;;4882345;29;20288;-47
2022/06/20 04:08:19;;;;;;;4.95;2.03;;;17.80;62.70;;;;;;4908903;29;20087;-48
2022/06/20 04:10:57;;;;;;;5.43;1.50;;;17.90;62.90;;;;;;4910080;29;20055;-47
2022/06/20 04:13:40;;;;;;;7.32;1.75;;;18.00;62.90;;;;;;4910369;29;20044;-47
2022/06/20 04:16:22;;;;;;;6.53;2.00;;;18.00;63.30;;;;;;4909805;29;20044;-44
2022/06/20 04:18:55;;;;;;;4.47;2.03;;;18.10;63.20;;;;;;4910763;29;20048;-46
2022/06/20 04:21:34;;;;;;;5.15;1.80;;;18.10;63.20;;;;;;4913886;29;20067;-47
2022/06/20 04:24:20;;;;;;;4.68;1.48;;;18.20;63.90;;;;;;4900304;29;20100;-49
2022/06/20 04:27:04;;;;;;;2.90;1.88;;;18.20;63.60;;;;;;4893820;29;20111;-47
2022/06/20 04:29:44;;;;;;;3.58;1.67;;;18.30;63.50;;;;;;4913363;29;20047;-49
2022/06/20 04:32:48;;;;;;;4.63;1.77;;;18.30;63.40;;;;;;4916007;29;20036;-50
2022/06/20 04:35:22;;;;;;;4.75;1.92;;;18.40;62.70;;;;;;4902229;29;20103;-47
2022/06/20 04:38:05;;;;;;;4.57;2.17;;;18.40;62.20;;;;;;4912741;29;20468;-47
2022/06/20 04:40:45;;;;;;;2.22;1.45;;;18.40;62.20;;;;;;4911796;29;20076;-48
2022/06/20 04:43:11;;;;;;;3.70;1.65;;;18.40;62.20;;;;;;4915184;29;20063;-49
2022/06/20 04:46:04;;;;;;;4.15;1.77;;;18.40;62.20;;;;;;4907911;29;20563;-48
2022/06/20 04:48:31;;;;;;;5.50;1.83;;;18.50;62.60;;;;;;4912284;29;20111;-47
2022/06/20 04:51:05;;;;;;;3.95;1.80;;;18.50;62.00;;;;;;4913568;29;20719;-46
2022/06/20 04:53:40;;;;;;;4.35;1.92;;;18.50;62.30;;;;;;4912405;29;20407;-50
2022/06/20 04:56:13;;;;;;;5.20;1.63;;;18.50;62.70;;;;;;4907711;29;20111;-47
2022/06/20 04:58:48;;;;;;;6.38;2.03;;;18.50;62.40;;;;;;4913485;29;20091;-49
2022/06/20 05:01:17;;;;;;;4.03;2.10;;;18.60;62.60;;;;;;4896238;29;20103;-48
2022/06/20 05:03:55;;;;;;;6.32;2.00;;;18.60;62.90;;;;;;4909257;29;20448;-48
2022/06/20 05:06:33;;;;;;;3.30;1.60;;;18.60;62.00;;;;;;4913419;29;20043;-46
2022/06/20 05:09:09;;;;;;;2.67;1.52;;;18.60;62.20;;;;;;4908784;29;20040;-48
2022/06/20 05:11:54;;;;;;;4.80;1.77;;;18.70;62.10;;;;;;4912994;29;20044;-50
2022/06/20 05:14:34;;;;;;;6.28;2.47;;;18.60;62.40;;;;;;4907172;29;20044;-46
2022/06/20 05:17:05;;;;;;;3.63;1.60;;;18.70;62.00;;;;;;4912208;29;20574;-48
2022/06/20 05:19:38;;;;;;;6.43;1.75;;;18.70;61.90;;;;;;4909823;29;20705;-51
2022/06/20 05:22:22;;;;;;;4.30;1.48;;;18.70;62.20;;;;;;4913057;29;20119;-49
2022/06/20 05:24:55;;;;;;;6.30;1.58;;;18.70;61.90;;;;;;4911891;29;20044;-49
2022/06/20 05:27:29;;;;;;;6.45;1.92;;;18.70;61.50;;;;;;4909580;29;20099;-50
2022/06/20 05:30:04;;;;;;;3.80;2.40;;;18.70;61.60;;;;;;4918027;29;20669;-48
2022/06/20 05:32:38;;;;;;;4.30;1.63;;;18.70;61.50;;;;;;4899079;29;20151;-50
2022/06/20 05:35:31;;;;;;;6.38;1.60;;;18.70;61.20;;;;;;4908275;29;20076;-49
2022/06/20 05:38:21;;;;;;;8.80;2.35;;;18.70;61.50;;;;;;4908832;29;20103;-50
2022/06/20 05:40:53;;;;;;;4.95;1.67;;;18.60;61.40;;;;;;4911842;29;20103;-52
2022/06/20 05:43:32;;;;;;;7.30;2.03;;;18.60;61.20;;;;;;4910773;29;20048;-51
2022/06/20 05:46:03;;;;;;;4.60;1.95;;;18.60;61.40;;;;;;4908171;29;20044;-51
2022/06/20 05:48:44;;;;;;;5.53;2.03;;;18.60;61.60;;;;;;4915701;29;20100;-52
2022/06/20 05:51:15;;;;;;;3.92;1.48;;;18.50;61.70;;;;;;4906267;29;20104;-52
2022/06/20 05:53:46;;;;;;;3.20;1.30;;;18.50;61.40;;;;;;4912747;29;20685;-53
2022/06/20 05:56:28;;;;;;;5.05;1.75;;;18.50;61.50;;;;;;4917939;29;20050;-51
2022/06/20 05:58:59;;;;;;;5.75;1.77;;;18.50;61.80;;;;;;4908246;29;20060;-52
2022/06/20 06:01:38;;;;;;;4.53;1.75;;;18.50;61.80;;;;;;4911064;29;20116;-51
2022/06/20 06:04:21;;;;;;;4.60;1.50;;;18.50;61.90;;;;;;4911218;29;20044;-51
2022/06/20 06:07:00;;;;;;;4.85;1.90;;;18.50;62.00;;;;;;4911448;29;20079;-51
2022/06/20 06:10:00;;;;;;;6.00;1.40;;;18.50;61.60;;;;;;4890518;29;20124;-52
2022/06/20 06:12:41;;;;;;;3.58;1.52;;;18.50;62.10;;;;;;4910555;29;20044;-48
2022/06/20 06:15:26;;;;;;;3.50;1.33;;;18.50;62.00;;;;;;4911921;29;20051;-49
2022/06/20 06:18:00;;;;;;;5.80;1.42;;;18.50;61.10;;;;;;4919603;29;20063;-52
2022/06/20 06:20:30;;;;;;;3.97;1.80;;;18.50;61.10;;;;;;4909198;29;20119;-48
2022/06/20 06:23:02;;;;;;;5.43;1.35;;;18.50;60.80;;;;;;4899555;29;20408;-52
2022/06/20 06:25:36;;;;;;;3.95;1.48;;;18.40;60.70;;;;;;4899938;29;20029;-51
2022/06/20 06:28:12;;;;;;;4.03;1.35;;;18.40;61.10;;;;;;4907762;29;20052;-48
2022/06/20 06:30:53;;;;;;;3.85;1.60;;;18.30;61.80;;;;;;4893061;29;20483;-49
2022/06/20 06:33:47;;;;;;;4.05;1.35;;;18.20;63.10;;;;;;4908796;29;20504;-52
2022/06/20 06:36:25;;;;;;;8.05;1.50;;;18.20;63.70;;;;;;4894036;29;20048;-50
2022/06/20 06:39:14;;;;;;;3.67;1.38;;;18.20;63.60;;;;;;4908264;29;20583;-52
2022/06/20 06:41:57;;;;;;;4.70;1.60;;;18.20;64.40;;;;;;4909672;29;20143;-49
2022/06/20 06:44:42;;;;;;;4.97;1.73;;;18.30;64.20;;;;;;4909687;29;20082;-50
2022/06/20 06:47:24;;;;;;;;;;;18.30;64.50;;;;;;4889941;29;20042;-49
2022/06/20 06:49:57;;;;;;;6.38;1.85;;;18.40;63.20;;;;;;4915229;29;19931;-50
2022/06/20 06:52:36;;;;;;;5.50;1.70;;;18.40;63.00;;;;;;4901981;29;20052;-50
2022/06/20 06:55:38;;;;;;;6.32;1.80;;;18.40;63.10;;;;;;4910156;29;20040;-48
2022/06/20 06:58:27;;;;;;;4.95;1.80;;;18.40;63.70;;;;;;4907958;29;20044;-49
2022/06/20 07:01:06;;;;;;;6.07;2.67;;;18.50;64.60;;;;;;4908097;29;20648;-49
2022/06/20 07:04:00;;;;;;;4.55;1.63;;;18.50;63.50;;;;;;4909163;29;20060;-51
2022/06/20 07:06:58;;;;;;;5.00;1.42;;;18.60;63.40;;;;;;4898262;29;20056;-50
2022/06/20 07:09:34;;;;;;;3.53;1.38;;;18.70;63.80;;;;;;4909278;29;20036;-50
2022/06/20 07:12:07;;;;;;;7.63;1.95;;;18.70;63.30;;;;;;4908325;29;20090;-51
2022/06/20 07:14:40;;;;;;;4.45;1.70;;;18.80;63.50;;;;;;4902612;29;20044;-52
2022/06/20 07:17:29;;;;;;;9.00;2.20;;;18.90;64.10;;;;;;4908411;29;20036;-52
2022/06/20 07:20:00;;;;;;;5.72;1.70;;;19.00;63.70;;;;;;4910182;29;20052;-53
2022/06/20 07:22:33;;;;;;;4.15;1.58;;;19.20;63.20;;;;;;4905556;29;20044;-52
2022/06/20 07:25:05;;;;;;;3.67;1.55;;;19.30;62.80;;;;;;4904293;29;20401;-52
2022/06/20 07:27:46;;;;;;;8.38;2.15;;;19.40;61.70;;;;;;4908780;29;20773;-50
2022/06/20 07:30:20;;;;;;;3.97;1.48;;;19.50;61.70;;;;;;4910173;29;20091;-51
2022/06/20 07:33:00;;;;;;;4.10;1.35;;;19.60;61.60;;;;;;4909082;29;20500;-50
2022/06/20 07:35:37;;;;;;;3.30;1.20;;;19.70;60.90;;;;;;4888796;29;20053;-53
2022/06/20 07:38:12;;;;;;;4.75;1.70;;;19.70;61.00;;;;;;4909199;29;20071;-52
2022/06/20 07:40:52;;;;;;;8.48;3.03;;;19.70;61.00;;;;;;4910568;29;20459;-51
2022/06/20 07:43:39;;;;;;;5.72;1.23;;;19.70;61.40;;;;;;4903773;29;20425;-49
2022/06/20 07:46:19;;;;;;;3.35;1.40;;;19.80;60.90;;;;;;4907689;29;20040;-52
2022/06/20 07:48:52;;;;;;;2.58;1.27;;;19.80;60.80;;;;;;4902684;29;20041;-52
2022/06/20 07:51:26;;;;;;;7.95;1.60;;;19.80;60.10;;;;;;4892054;29;20044;-52
2022/06/20 07:53:59;;;;;;;3.15;1.60;;;19.80;60.50;;;;;;4905321;29;20048;-52
2022/06/20 07:56:34;;;;;;;5.32;1.70;;;19.80;60.50;;;;;;4909556;29;20048;-50
2022/06/20 07:59:08;;;;;;;4.55;1.75;;;19.80;60.90;;;;;;4909517;29;20058;-52
2022/06/20 08:02:06;;;;;;;2.92;1.73;;;19.80;59.70;;;;;;4905727;29;20040;-49
2022/06/20 08:04:38;;;;;;;3.22;1.42;;;19.80;59.50;;;;;;4905895;29;20056;-53
2022/06/20 08:07:20;;;;;;;4.95;1.40;;;19.80;59.40;;;;;;4909276;29;20048;-52
2022/06/20 08:10:10;;;;;;;4.22;1.25;;;19.90;58.60;;;;;;4923612;29;20048;-51
2022/06/20 08:13:26;;;;;;;3.80;1.10;;;19.90;58.30;;;;;;4905453;29;20056;-52
2022/06/20 08:15:57;;;;;;;2.65;1.02;;;20.00;58.50;;;;;;4897588;29;20048;-51
2022/06/20 08:18:25;;;;;;;2.25;0.90;;;20.10;58.90;;;;;;4909391;29;20500;-50
2022/06/20 08:21:20;;;;;;;4.18;1.15;;;20.20;58.20;;;;;;4900936;29;20295;-53
2022/06/20 08:23:55;;;;;;;3.65;1.20;;;20.30;57.90;;;;;;4902738;29;20103;-49
2022/06/20 08:26:29;;;;;;;3.63;1.00;;;20.40;56.20;;;;;;4911146;29;20051;-49
2022/06/20 08:29:03;;;;;;;4.00;1.30;;;20.50;56.00;;;;;;4910730;29;20068;-51
2022/06/20 08:31:37;;;;;;;2.63;0.82;;;20.60;56.00;;;;;;4900029;29;20500;-49
2022/06/20 08:34:07;;;;;;;2.97;1.00;;;20.60;55.60;;;;;;4912583;29;20452;-49
2022/06/20 08:36:46;;;;;;;1.98;1.23;;;20.70;55.10;;;;;;4910421;29;20103;-48
2022/06/20 08:39:31;;;;;;;2.72;0.98;;;20.70;54.10;;;;;;4907302;29;20048;-48
2022/06/20 08:42:46;;;;;;;2.33;1.40;;;20.80;54.60;;;;;;4907177;29;20040;-48
2022/06/20 08:45:49;;;;;;;3.78;0.80;;;20.80;54.40;;;;;;4885087;29;20456;-50
2022/06/20 08:48:44;;;;;;;3.92;0.93;;;20.90;53.90;;;;;;4905954;29;20061;-51
2022/06/20 08:52:06;;;;;;;1.42;0.80;;;21.00;54.70;;;;;;4906433;29;20601;-52
2022/06/20 08:54:41;;;;;;;4.95;1.17;;;21.10;53.90;;;;;;4910129;29;20040;-50
2022/06/20 08:57:57;;;;;;;2.92;1.02;;;21.20;54.20;;;;;;4905710;29;20107;-52
2022/06/20 09:00:55;;;;;;;4.13;0.95;;;21.20;53.30;;;;;;4904079;29;20468;-51
2022/06/20 09:03:31;;;;;;;3.13;1.58;;;21.30;53.50;;;;;;4913134;29;20060;-52
2022/06/20 09:06:24;;;;;;;4.30;1.13;;;21.40;52.80;;;;;;4913485;29;20138;-51
2022/06/20 09:09:07;;;;;;;2.88;0.90;;;21.40;53.20;;;;;;5080976;23;20451;-46
2022/06/20 09:11:59;;;;;;;6.70;1.30;;;21.50;52.60;;;;;;4912518;29;20036;-47
2022/06/20 09:15:05;;;;;;;2.97;0.85;;;21.50;52.50;;;;;;4912859;29;20640;-47
2022/06/20 09:17:52;;;;;;;2.33;1.25;;;21.50;51.90;;;;;;4907900;29;20062;-48
2022/06/20 09:20:36;;;;;;;3.13;1.15;;;21.50;51.20;;;;;;4892389;29;20476;-47
2022/06/20 09:23:32;;;;;;;2.55;0.77;;;21.60;51.70;;;;;;4893832;29;20673;-47
2022/06/20 09:26:04;;;;;;;3.35;2.08;;;21.70;52.20;;;;;;4893291;29;20045;-46
2022/06/20 09:29:03;;;;;;;2.03;1.20;;;21.70;51.50;;;;;;4883918;29;20140;-47
2022/06/20 09:32:10;;;;;;;1.85;0.88;;;21.80;51.20;;;;;;4892353;29;20528;-47
2022/06/20 09:34:50;;;;;;;4.60;1.70;;;21.90;51.00;;;;;;4892803;29;20100;-48
2022/06/20 09:37:46;;;;;;;2.63;1.20;;;22.00;50.90;;;;;;4894607;29;20040;-51
2022/06/20 09:40:51;;;;;;;2.65;1.00;;;22.10;51.00;;;;;;4891314;29;20092;-50
2022/06/20 09:43:52;;;;;;;2.17;0.90;;;22.30;50.30;;;;;;4894631;29;20489;-50
2022/06/20 09:46:55;;;;;;;1.50;1.00;;;22.40;49.90;;;;;;4892971;29;20051;-48
2022/06/20 09:49:29;;;;;;;2.85;1.13;;;22.50;48.90;;;;;;4892852;29;20066;-51
2022/06/20 09:52:09;;;;;;;1.45;0.88;;;22.60;48.90;;;;;;4894033;29;20056;-48
2022/06/20 09:54:50;;;;;;;;;;;22.60;48.60;;;;;;4892622;29;20033;-50
2022/06/20 09:57:56;;;;;;;1.88;0.88;;;22.70;49.70;;;;;;4893207;29;19924;-50
2022/06/20 10:00:39;;;;;;;3.78;1.55;;;22.70;48.50;;;;;;4893802;29;20077;-49
2022/06/20 10:03:37;;;;;;;2.38;1.02;;;22.70;48.30;;;;;;4893890;29;20040;-48
2022/06/20 10:06:29;;;;;;;4.18;1.20;;;22.70;48.40;;;;;;4892129;29;20139;-50
2022/06/20 10:09:23;;;;;;;1.52;1.30;;;22.70;47.80;;;;;;4888099;29;20064;-48
2022/06/20 10:12:15;;;;;;;4.00;1.60;;;22.70;48.00;;;;;;4891452;29;20473;-51
2022/06/20 10:15:01;;;;;;;1.73;0.90;;;22.70;47.50;;;;;;4893074;29;20650;-48
2022/06/20 10:17:48;;;;;;;3.42;1.40;;;22.70;47.00;;;;;;4892323;29;20045;-46
2022/06/20 10:20:22;;;;;;;3.35;1.35;;;22.70;46.40;;;;;;4893442;29;20100;-48
2022/06/20 10:23:20;;;;;;;3.63;1.25;;;22.60;47.00;;;;;;4893132;29;20044;-48
2022/06/20 10:26:10;;;;;;;2.75;1.27;;;22.70;47.00;;;;;;4890334;29;20060;-51
2022/06/20 10:28:47;;;;;;;2.28;1.10;;;22.80;47.00;;;;;;4885369;29;20052;-48
2022/06/20 10:31:46;;;;;;;2.28;1.10;;;22.80;46.30;;;;;;4892390;29;20044;-51
2022/06/20 10:34:33;;;;;;;4.78;1.77;;;22.90;46.30;;;;;;4892631;29;20125;-49
2022/06/20 10:37:29;;;;;;;7.45;1.30;;;23.00;47.80;;;;;;4892293;29;20052;-47
2022/06/20 10:39:59;;;;;;;5.32;1.65;;;23.00;47.40;;;;;;4891845;29;20069;-51
2022/06/20 10:42:33;;;;;;;2.20;1.67;;;23.00;47.60;;;;;;4900141;29;20103;-50
2022/06/20 10:45:21;;;;;;;4.55;1.60;;;23.00;47.10;;;;;;4878394;29;20131;-50
2022/06/20 10:48:07;;;;;;;1.92;1.48;;;23.00;47.70;;;;;;4883062;29;20415;-51
2022/06/20 10:51:07;;;;;;;4.13;1.83;;;23.00;46.70;;;;;;4892865;29;20095;-50
2022/06/20 10:53:42;;;;;;;3.58;1.30;;;23.00;47.60;;;;;;4879630;29;20052;-51
2022/06/20 10:56:27;;;;;;;2.75;1.40;;;23.00;46.70;;;;;;4892502;29;20421;-51
2022/06/20 10:59:32;;;;;;;4.20;1.60;;;23.00;45.60;;;;;;4893113;29;20072;-51
2022/06/20 11:02:31;;;;;;;3.15;1.65;;;23.10;45.60;;;;;;4891468;29;20393;-51
2022/06/20 11:05:24;;;;;;;3.38;1.40;;;23.20;45.30;;;;;;4887108;29;20036;-47
2022/06/20 11:08:01;;;;;;;5.80;1.45;;;23.30;45.50;;;;;;4880207;29;20566;-50
2022/06/20 11:10:54;;;;;;;4.75;1.90;;;23.40;44.70;;;;;;4891852;29;20040;-51
2022/06/20 11:13:26;;;;;;;1.77;1.40;;;23.40;45.20;;;;;;4893564;29;20044;-50
2022/06/20 11:16:37;;;;;;;2.80;1.63;;;23.50;44.80;;;;;;4892129;29;20049;-50
2022/06/20 11:19:34;;;;;;;4.30;1.58;;;23.50;44.40;;;;;;4802084;29;20050;-48
2022/06/20 11:22:21;;;;;;;3.53;1.63;;;23.60;44.30;;;;;;4807607;29;20051;-50
2022/06/20 11:25:03;;;;;;;5.85;1.88;;;23.60;44.10;;;;;;4859450;29;20053;-51
2022/06/20 11:27:32;;;;;;;4.13;1.60;;;23.60;43.20;;;;;;4880143;29;20037;-51
2022/06/20 11:30:26;;;;;;;6.00;1.83;;;23.60;43.80;;;;;;4891011;29;20386;-51
2022/06/20 11:34:00;;;;;;;5.15;1.67;;;23.60;42.60;;;;;;4892127;29;20089;-51
2022/06/20 11:36:16;;;;;;;3.75;1.92;;;23.70;42.90;;;;;;4890414;29;20057;-52
2022/06/20 11:39:09;;;;;;;2.97;1.90;;;23.70;43.90;;;;;;4891132;29;20520;-49
2022/06/20 11:41:50;;;;;;;2.75;1.40;;;23.80;42.60;;;;;;4891588;29;20052;-51
2022/06/20 11:44:36;;;;;;;3.80;1.58;;;23.90;42.20;;;;;;4891162;29;20057;-51
2022/06/20 11:47:39;;;;;;;2.22;1.55;;;23.90;43.00;;;;;;4893314;29;20100;-50
2022/06/20 11:50:28;;;;;;;2.67;1.77;;;24.00;42.50;;;;;;4888789;29;20510;-48
2022/06/20 11:53:12;;;;;;;;;;;24.10;42.50;;;;;;4888032;29;20045;-52
2022/06/20 11:55:50;;;;;;;3.28;2.00;;;24.20;42.80;;;;;;4891772;29;20410;-52
2022/06/20 11:58:31;;;;;;;3.65;1.65;;;24.20;41.60;;;;;;4880364;29;20054;-51
2022/06/20 12:01:19;;;;;;;1.58;1.42;;;24.30;42.30;;;;;;4891288;29;20066;-49
2022/06/20 12:03:54;;;;;;;4.50;1.92;;;24.30;40.90;;;;;;4892658;29;20135;-51
2022/06/20 12:06:35;;;;;;;2.55;2.00;;;24.40;41.60;;;;;;4890068;29;20468;-50
2022/06/20 12:09:10;;;;;;;3.25;1.77;;;24.50;41.10;;;;;;4891211;29;20548;-51
2022/06/20 12:12:18;;;;;;;2.35;1.55;;;24.60;41.10;;;;;;4883941;29;20040;-51
2022/06/20 12:15:23;;;;;;;3.53;2.08;;;24.70;40.90;;;;;;4891698;29;20055;-50
2022/06/20 12:18:12;;;;;;;2.45;1.45;;;24.80;40.80;;;;;;4888267;29;20060;-50
2022/06/20 12:23:40;;;;;;;3.85;1.88;;;24.90;41.00;;;;;;4890534;29;20041;-51
2022/06/20 12:26:12;;;;;;;2.95;1.65;;;24.80;40.80;;;;;;4889712;29;20472;-47
2022/06/20 12:28:47;;;;;;;6.13;2.10;;;24.80;40.90;;;;;;4892087;29;20120;-52
2022/06/20 12:31:35;;;;;;;2.30;1.75;;;24.80;40.90;;;;;;4892132;29;20056;-52
2022/06/20 12:34:29;;;;;;;4.18;1.50;;;24.90;39.60;;;;;;4888692;29;20049;-52
2022/06/20 12:37:07;;;;;;;3.83;1.70;;;24.80;40.00;;;;;;4889636;29;20689;-50
2022/06/20 12:39:43;;;;;;;1.58;1.48;;;24.80;39.90;;;;;;4887843;29;20043;-50
2022/06/20 12:42:32;;;;;;;2.40;1.48;;;24.70;39.60;;;;;;4893768;29;20053;-51
2022/06/20 12:45:23;;;;;;;3.85;1.90;;;24.70;39.80;;;;;;4893433;29;20053;-51
2022/06/20 12:48:00;;;;;;;2.58;1.67;;;24.70;40.20;;;;;;4902413;29;20437;-52
2022/06/20 12:50:54;;;;;;;3.13;1.45;;;24.70;40.20;;;;;;4894649;29;20393;-50
2022/06/20 12:53:35;;;;;;;2.72;1.88;;;24.80;39.90;;;;;;4894133;29;20052;-51
2022/06/20 12:56:24;;;;;;;2.42;2.08;;;24.90;40.20;;;;;;4894607;29;20045;-50
2022/06/20 12:58:57;;;;;;;4.18;1.90;;;25.00;39.90;;;;;;4875376;29;20537;-50
2022/06/20 13:01:30;;;;;;;4.88;1.67;;;25.10;38.60;;;;;;4879645;29;20079;-49
2022/06/20 13:04:25;;;;;;;3.13;1.73;;;25.20;39.40;;;;;;4895156;29;20063;-52
2022/06/20 13:07:01;;;;;;;3.70;1.55;;;25.30;38.50;;;;;;4894001;29;20076;-52
2022/06/20 13:09:40;;;;;;;2.72;1.58;;;25.50;38.90;;;;;;4896096;29;20406;-52
2022/06/20 13:12:16;;;;;;;3.00;1.83;;;25.60;38.40;;;;;;4893563;29;20417;-50
2022/06/20 13:15:06;;;;;;;3.10;2.10;;;25.70;38.50;;;;;;4893763;29;20594;-51
2022/06/20 13:17:42;;;;;;;5.18;1.70;;;25.90;38.60;;;;;;4894601;29;20239;-52
2022/06/20 13:20:34;;;;;;;2.63;1.85;;;26.10;38.60;;;;;;4893809;29;20056;-49
2022/06/20 13:23:13;;;;;;;;;;;26.20;37.70;;;;;;4893239;29;20053;-51
2022/06/20 13:26:02;;;;;;;2.78;1.67;;;26.40;39.30;;;;;;4886158;29;19930;-48
2022/06/20 13:28:46;;;;;;;2.60;2.08;;;26.50;37.60;;;;;;4893863;29;20528;-49
2022/06/20 13:31:18;;;;;;;2.90;1.63;;;26.50;36.40;;;;;;4894272;29;20041;-52
2022/06/20 13:33:53;;;;;;;2.30;1.90;;;26.60;36.70;;;;;;4891756;29;20045;-51
2022/06/20 13:36:46;;;;;;;3.97;1.80;;;26.60;36.40;;;;;;4893383;29;20032;-50
2022/06/20 13:39:44;;;;;;;2.47;1.92;;;26.60;36.60;;;;;;4892978;29;20045;-48
2022/06/20 13:42:22;;;;;;;2.63;2.03;;;26.60;37.10;;;;;;4891502;29;20052;-52
2022/06/20 13:45:12;;;;;;;4.30;1.90;;;26.70;36.60;;;;;;4894296;29;20044;-50
2022/06/20 13:47:38;;;;;;;3.30;1.80;;;27.00;37.30;;;;;;4893072;29;20051;-51
2022/06/20 13:50:22;;;;;;;4.10;1.88;;;27.40;37.10;;;;;;4892537;29;20044;-51
2022/06/20 13:52:58;;;;;;;4.00;2.15;;;27.70;35.90;;;;;;4890229;29;20045;-52
2022/06/20 13:55:55;;;;;;;3.78;1.50;;;28.30;37.80;;;;;;4893009;29;20504;-50
2022/06/20 13:58:30;;;;;;;2.65;1.45;;;29.20;36.90;;;;;;4875569;29;20112;-52
2022/06/20 14:01:06;;;;;;;3.38;1.60;;;30.40;35.50;;;;;;4894005;29;20047;-52
2022/06/20 14:03:39;;;;;;;3.92;2.05;;;31.40;34.10;;;;;;4893285;29;20048;-52
2022/06/20 14:06:14;;;;;;;2.60;1.65;;;32.00;33.00;;;;;;4892255;29;20052;-52